createdAt,value
2023-03-28T00:01:29.709Z,84.00
2023-03-28T00:06:31.985Z,83.82
2023-03-28T00:11:33.852Z,84.01
2023-03-28T00:16:39.281Z,83.83
2023-03-28T00:21:47.024Z,83.83
2023-03-28T00:26:49.750Z,84.17
2023-03-28T00:31:51.706Z,83.87
2023-03-28T00:36:55.189Z,84.32
2023-03-28T00:42:01.483Z,84.34
2023-03-28T00:47:05.645Z,84.12
2023-03-28T00:52:08.543Z,84.27
2023-03-28T00:57:10.594Z,84.24
2023-03-28T01:02:12.524Z,84.36
2023-03-28T01:07:16.375Z,84.37
2023-03-28T01:12:20.231Z,83.89
2023-03-28T01:17:21.988Z,84.77
2023-03-28T01:23:02.620Z,84.67
2023-03-28T01:28:24.046Z,84.54
2023-03-28T01:33:44.752Z,84.57
2023-03-28T01:38:58.254Z,84.77
2023-03-28T01:44:25.339Z,84.41
2023-03-28T01:49:41.951Z,84.91
2023-03-28T01:54:46.629Z,84.74
2023-03-28T02:00:15.762Z,84.36
2023-03-28T02:05:38.072Z,84.46
2023-03-28T02:10:46.202Z,84.85
2023-03-28T02:16:00.674Z,84.89
2023-03-28T02:21:34.850Z,84.91
2023-03-28T02:26:47.761Z,85.03
2023-03-28T02:31:59.797Z,85.07
2023-03-28T02:37:29.652Z,85.53
2023-03-28T02:42:39.809Z,85.59
2023-03-28T02:48:36.680Z,85.87
2023-03-28T02:53:51.072Z,85.41
2023-03-28T02:59:07.165Z,85.28
2023-03-28T03:04:09.025Z,85.08
2023-03-28T03:09:11.343Z,84.67
2023-03-28T03:14:13.077Z,84.36
2023-03-28T03:19:15.452Z,84.14
2023-03-28T03:24:17.193Z,83.93
2023-03-28T03:29:20.052Z,84.01
2023-03-28T03:34:21.957Z,83.68
2023-03-28T03:39:30.187Z,83.90
2023-03-28T03:44:32.022Z,83.80
2023-03-28T03:49:33.816Z,83.72
2023-03-28T03:54:38.486Z,83.93
2023-03-28T03:59:40.945Z,83.63
2023-03-28T04:04:47.764Z,83.83
2023-03-28T04:09:58.030Z,83.67
2023-03-28T04:15:02.702Z,83.46
2023-03-28T04:20:13.909Z,83.18
2023-03-28T04:25:34.596Z,82.85
2023-03-28T04:30:43.511Z,83.26
2023-03-28T04:36:09.767Z,82.92
2023-03-28T04:41:13.630Z,82.83
2023-03-28T04:46:33.829Z,82.58
2023-03-28T04:51:43.928Z,82.75
2023-03-28T04:56:49.410Z,82.41
2023-03-28T05:01:58.350Z,82.70
2023-03-28T05:07:03.821Z,82.43
2023-03-28T05:12:06.791Z,82.61
2023-03-28T05:17:24.732Z,82.74
2023-03-28T05:22:36.338Z,82.31
2023-03-28T05:27:38.765Z,82.09
2023-03-28T05:32:41.175Z,81.77
2023-03-28T05:37:47.032Z,81.59
2023-03-28T05:42:49.352Z,81.80
2023-03-28T05:47:56.034Z,82.07
2023-03-28T05:52:58.913Z,81.48
2023-03-28T05:58:00.615Z,81.73
2023-03-28T06:03:17.262Z,81.76
2023-03-28T06:08:20.539Z,82.18
2023-03-28T06:13:22.825Z,82.04
2023-03-28T06:18:26.239Z,81.99
2023-03-28T06:23:28.560Z,82.08
2023-03-28T06:28:31.302Z,81.97
2023-03-28T06:33:52.383Z,81.60
2023-03-28T06:38:58.217Z,81.47
2023-03-28T06:44:02.187Z,81.68
2023-03-28T06:49:29.907Z,81.29
2023-03-28T06:55:05.076Z,81.24
2023-03-28T07:00:08.293Z,81.49
2023-03-28T07:05:40.483Z,81.35
2023-03-28T07:10:43.333Z,81.61
2023-03-28T07:15:45.412Z,81.41
2023-03-28T07:20:51.947Z,80.74
2023-03-28T07:26:07.282Z,80.72
2023-03-28T07:31:09.638Z,81.06
2023-03-28T07:36:19.137Z,81.41
2023-03-28T07:41:26.628Z,80.68
2023-03-28T07:46:28.700Z,80.49
2023-03-28T07:51:32.359Z,79.78
2023-03-28T07:56:34.092Z,78.74
2023-03-28T08:01:46.835Z,78.82
2023-03-28T08:06:49.102Z,76.89
2023-03-28T08:11:51.152Z,77.45
2023-03-28T08:16:53.703Z,78.08
2023-03-28T08:21:58.721Z,74.25
2023-03-28T08:27:01.980Z,73.91
2023-03-28T08:32:06.378Z,73.75
2023-03-28T08:37:08.866Z,70.19
2023-03-28T08:42:28.660Z,72.12
2023-03-28T08:47:36.813Z,70.12
2023-03-28T08:52:40.694Z,71.75
2023-03-28T08:57:45.634Z,69.65
2023-03-28T09:02:49.159Z,69.89
2023-03-28T09:13:49.960Z,64.41
2023-03-28T09:19:36.886Z,65.87
2023-03-28T09:25:32.796Z,65.75
2023-03-28T09:30:43.499Z,64.27
2023-03-28T09:35:47.034Z,62.94
2023-03-28T09:40:54.365Z,64.20
2023-03-28T09:46:22.385Z,62.43
2023-03-28T09:51:42.684Z,62.36
2023-03-28T09:56:46.181Z,62.36
2023-03-28T10:02:00.731Z,62.02
2023-03-28T10:07:08.448Z,61.59
2023-03-28T10:12:10.974Z,59.94
2023-03-28T10:17:27.836Z,59.48
2023-03-28T10:22:33.940Z,61.88
2023-03-28T10:27:37.502Z,59.14
2023-03-28T10:32:42.714Z,58.22
2023-03-28T10:38:05.997Z,57.48
2023-03-28T10:43:39.946Z,56.42
2023-03-28T10:48:56.491Z,56.30
2023-03-28T10:54:27.002Z,54.98
2023-03-28T10:59:35.164Z,56.68
2023-03-28T11:04:56.459Z,54.09
2023-03-28T11:10:11.739Z,54.86
2023-03-28T11:15:38.204Z,55.72
2023-03-28T11:21:34.215Z,53.36
2023-03-28T11:27:08.625Z,53.84
2023-03-28T11:32:55.843Z,54.92
2023-03-28T11:38:06.349Z,53.83
2023-03-28T11:43:16.731Z,52.41
2023-03-28T11:48:43.771Z,52.54
2023-03-28T11:54:10.088Z,50.40
2023-03-28T11:59:22.824Z,50.99
2023-03-28T12:04:30.375Z,50.90
2023-03-28T12:10:00.123Z,50.33
2023-03-28T12:15:14.456Z,50.60
2023-03-28T12:20:56.127Z,50.18
2023-03-28T12:26:40.612Z,49.47
2023-03-28T12:32:19.778Z,49.93
2023-03-28T12:37:28.119Z,49.21
2023-03-28T12:42:36.352Z,48.58
2023-03-28T12:47:46.634Z,48.04
2023-03-28T12:52:49.516Z,49.96
2023-03-28T12:58:21.183Z,49.26
2023-03-28T13:04:01.424Z,48.54
2023-03-28T13:09:44.664Z,47.77
2023-03-28T13:15:01.944Z,48.22
2023-03-28T13:20:17.467Z,48.16
2023-03-28T13:25:25.673Z,49.47
2023-03-28T13:30:29.818Z,49.08
2023-03-28T13:35:44.747Z,49.20
2023-03-28T13:41:06.983Z,47.77
2023-03-28T13:46:16.586Z,47.19
2023-03-28T13:51:26.584Z,46.59
2023-03-28T13:56:34.435Z,48.52
2023-03-28T14:01:49.178Z,48.39
2023-03-28T14:06:52.791Z,46.25
2023-03-28T14:12:12.267Z,47.21
2023-03-28T14:17:36.619Z,47.55
2023-03-28T14:22:52.857Z,47.57
2023-03-28T14:28:07.908Z,47.32
2023-03-28T14:33:14.691Z,47.01
2023-03-28T14:38:32.078Z,47.48
2023-03-28T14:43:34.654Z,46.40
2023-03-28T14:48:39.119Z,46.90
2023-03-28T14:53:44.912Z,47.67
2023-03-28T14:58:48.423Z,47.44
2023-03-28T15:03:59.776Z,47.19
2023-03-28T15:09:11.304Z,46.77
2023-03-28T15:14:16.969Z,46.59
2023-03-28T15:19:32.077Z,47.15
2023-03-28T15:24:36.615Z,46.80
2023-03-28T15:29:39.338Z,48.26
2023-03-28T15:34:46.974Z,46.85
2023-03-28T15:39:50.885Z,47.97
2023-03-28T15:45:28.433Z,46.66
2023-03-28T15:50:37.429Z,47.89
2023-03-28T15:55:40.785Z,47.68
2023-03-28T16:00:49.273Z,47.70
2023-03-28T16:06:04.596Z,47.86
2023-03-28T16:11:21.422Z,48.06
2023-03-28T16:16:56.125Z,48.04
2023-03-28T16:22:17.690Z,48.45
2023-03-28T16:27:20.696Z,48.35
2023-03-28T16:32:23.876Z,48.22
2023-03-28T16:37:25.892Z,48.80
2023-03-28T16:42:28.580Z,48.46
2023-03-28T16:47:30.651Z,48.17
2023-03-28T16:52:32.605Z,48.08
2023-03-28T16:57:44.730Z,47.99
2023-03-28T17:02:52.310Z,48.05
2023-03-28T17:07:54.027Z,47.97
2023-03-28T17:12:56.641Z,48.10
2023-03-28T17:17:59.179Z,47.93
2023-03-28T17:23:01.071Z,48.50
2023-03-28T17:28:02.820Z,49.42
2023-03-28T17:33:04.730Z,50.76
2023-03-28T17:38:06.745Z,51.39
2023-03-28T17:43:09.341Z,52.59
2023-03-28T17:48:12.604Z,53.79
2023-03-28T17:53:14.361Z,54.86
2023-03-28T17:58:16.138Z,55.34
2023-03-28T18:03:18.121Z,56.24
2023-03-28T18:08:40.359Z,56.99
2023-03-28T18:13:42.969Z,57.36
2023-03-28T18:18:44.828Z,57.73
2023-03-28T18:23:48.139Z,57.98
2023-03-28T18:28:50.348Z,58.37
2023-03-28T18:33:53.984Z,59.08
2023-03-28T18:38:56.255Z,59.53
2023-03-28T18:43:58.126Z,59.81
2023-03-28T18:49:00.737Z,60.13
2023-03-28T18:54:03.694Z,60.44
2023-03-28T18:59:05.545Z,60.59
2023-03-28T19:04:07.850Z,61.17
2023-03-28T19:09:10.734Z,61.72
2023-03-28T19:14:13.059Z,62.65
2023-03-28T19:19:15.265Z,63.29
2023-03-28T19:24:19.904Z,63.56
2023-03-28T19:29:21.665Z,63.88
2023-03-28T19:34:23.714Z,63.71
2023-03-28T19:39:25.405Z,64.19
2023-03-28T19:44:27.183Z,64.53
2023-03-28T19:49:28.928Z,64.45
2023-03-28T19:54:30.588Z,64.34
2023-03-28T19:59:32.267Z,64.42
2023-03-28T20:04:34.093Z,64.14
2023-03-28T20:09:35.931Z,64.23
2023-03-28T20:14:37.603Z,64.46
2023-03-28T20:19:39.423Z,64.49
2023-03-28T20:24:41.269Z,64.15
2023-03-28T20:29:43.029Z,63.57
2023-03-28T20:34:44.856Z,63.81
2023-03-28T20:39:48.047Z,63.71
2023-03-28T20:44:49.994Z,64.08
2023-03-28T20:49:56.763Z,64.18
2023-03-28T20:54:58.927Z,64.44
2023-03-28T21:00:01.705Z,64.60
2023-03-28T21:05:03.487Z,64.50
2023-03-28T21:10:07.372Z,64.98
2023-03-28T21:15:12.930Z,64.98
2023-03-28T21:20:14.772Z,65.00
2023-03-28T21:25:16.959Z,64.75
2023-03-28T21:30:19.392Z,64.58
2023-03-28T21:35:21.612Z,64.64
2023-03-28T21:40:23.632Z,64.35
2023-03-28T21:45:25.318Z,64.70
2023-03-28T21:50:31.315Z,64.36
2023-03-28T21:55:33.040Z,64.08
2023-03-28T22:00:35.173Z,64.86
2023-03-28T22:05:42.847Z,64.22
2023-03-28T22:10:50.294Z,64.11
2023-03-28T22:15:53.229Z,63.68
2023-03-28T22:20:55.232Z,63.76
2023-03-28T22:25:58.448Z,63.23
2023-03-28T22:31:00.461Z,63.05
2023-03-28T22:36:02.500Z,62.26
2023-03-28T22:41:04.758Z,62.08
2023-03-28T22:46:06.622Z,61.90
2023-03-28T22:51:11.851Z,61.33
2023-03-28T22:56:13.817Z,61.24
2023-03-28T23:01:15.600Z,60.94
2023-03-28T23:06:17.579Z,60.51
2023-03-28T23:11:19.908Z,60.44
2023-03-28T23:16:22.043Z,60.49
2023-03-28T23:21:24.426Z,60.68
2023-03-28T23:26:26.399Z,60.31
2023-03-28T23:31:28.306Z,60.19
2023-03-28T23:36:30.083Z,60.17
2023-03-28T23:41:32.089Z,60.35
2023-03-28T23:46:34.157Z,60.34
2023-03-28T23:51:36.439Z,60.69
2023-03-28T23:56:38.742Z,60.68
